Milledgeville, GA

10:34 AM EST del 03 Dicembre 2016 (GMT -0500)
Baldwin County | | Change Station

Alt. 384 ft 33.15 °N, 83.24 °W | Updated 19 minutes ago

Clear
Sereno
50 °F
Sembra 50 °F
N
0
Vento Variabile Vento da Nord

Oggi
Massima -- | Minima -- °F
--% Possibilità di precip.
Ieri
Massima -- | Minima -- °F
Precip. -- in
Pressione 30.28 in
Visibilità 10.0 miglia
Nuvole Sereno
Punto di rugiada 39 °F
Umidità 66%
Piovosità 0.00 in
Spessore del manto nevoso Non disponibile.
7:20 AM 5:25 PM
Luna crescente, 15% visible
METAR KMLJ 031515Z AUTO 00000KT 10SM CLR 10/04 A3028 RMK AO2
Pressione 30.28 in
Visibilità 10.0 miglia
Nuvole Sereno
Punto di rugiada 39 °F
Umidità 66%
Piovosità 0.00 in
Spessore del manto nevoso Non disponibile.
7:20 AM 5:25 PM
Luna crescente, 15% visible
METAR KMLJ 031515Z AUTO 00000KT 10SM CLR 10/04 A3028 RMK AO2

10-Day Weather Forecast

Almanac

Astronomia

Dec. 03, 2016 Alba Tramonto
Ora attuale
Crepuscolo civile
Crepuscolo nautico
Crepuscolo astronomico
Luna
Estensione della luce visibile
Lunghezza del giorno
Tomorrow will be .
, % of the Moon is Illuminated

Gli estremi di oggi

State Highs State Lows

Community

WunderPhotos

Upload Photos

1,955,425 foto caricate!

WunderBlog® & News

Nearby

Qualità dell'aria

  Qualità dell'aria Indice AQ Inquinante
Not available.

Profondità neve

Stazione Profondità Altitudine

Attività sismica

Città  Distanza Mag. Data & Ora
Minimo Magnitudo Mostrato è 2.5.

Temperature delle acque costiere

Località Temperatura

Stations

Stazioni meteo nelle vicinanze

Ubicazione della stazione Temp. Raffreddamento del vento Punto di rugiada Umidità Vento Precip. Alt. Aggiornato Tipo
                   

Watches & Warnings

There are currently no watches in effect.